createdAt,value
2022-09-29T00:00:47.948Z,6.56
2022-09-29T00:03:49.944Z,6.53
2022-09-29T00:06:51.704Z,6.64
2022-09-29T00:09:53.550Z,6.65
2022-09-29T00:12:55.384Z,6.62
2022-09-29T00:15:59.277Z,6.62
2022-09-29T00:19:01.544Z,6.63
2022-09-29T00:22:03.281Z,6.63
2022-09-29T00:25:05.482Z,6.58
2022-09-29T00:28:07.144Z,6.60
2022-09-29T00:31:11.974Z,6.65
2022-09-29T00:34:13.746Z,6.63
2022-09-29T00:37:15.397Z,6.73
2022-09-29T00:40:17.350Z,6.63
2022-09-29T00:43:57.630Z,6.66
2022-09-29T00:47:04.634Z,6.51
2022-09-29T00:50:43.958Z,6.55
2022-09-29T00:53:47.660Z,6.58
2022-09-29T00:56:50.491Z,6.56
2022-09-29T00:59:52.083Z,6.57
2022-09-29T01:03:03.566Z,6.65
2022-09-29T01:06:13.781Z,6.68
2022-09-29T01:09:19.432Z,6.62
2022-09-29T01:12:21.481Z,6.60
2022-09-29T01:15:23.251Z,6.65
2022-09-29T01:18:25.476Z,6.71
2022-09-29T01:21:51.508Z,6.75
2022-09-29T01:24:58.519Z,6.62
2022-09-29T01:28:15.485Z,6.67
2022-09-29T01:31:35.085Z,6.67
2022-09-29T01:34:58.803Z,6.52
2022-09-29T01:38:19.505Z,6.55
2022-09-29T01:41:31.589Z,6.58
2022-09-29T01:44:42.739Z,6.52
2022-09-29T01:47:55.187Z,6.54
2022-09-29T01:51:02.001Z,6.50
2022-09-29T01:54:10.179Z,6.48
2022-09-29T01:57:35.487Z,6.41
2022-09-29T02:00:43.939Z,6.43
2022-09-29T02:03:54.142Z,6.36
2022-09-29T02:07:10.664Z,6.43
2022-09-29T02:10:18.624Z,6.33
2022-09-29T02:13:23.660Z,6.28
2022-09-29T02:16:30.233Z,6.27
2022-09-29T02:19:33.963Z,6.27
2022-09-29T02:22:36.304Z,6.13
2022-09-29T02:25:39.281Z,5.93
2022-09-29T02:28:42.235Z,5.89
2022-09-29T02:31:45.201Z,5.84
2022-09-29T02:34:50.677Z,5.87
2022-09-29T02:38:00.979Z,5.82
2022-09-29T02:41:40.461Z,5.72
2022-09-29T02:45:30.615Z,5.78
2022-09-29T02:49:01.447Z,5.80
2022-09-29T02:52:33.152Z,5.74
2022-09-29T02:55:37.671Z,5.70
2022-09-29T02:58:49.626Z,5.79
2022-09-29T03:01:53.942Z,5.82
2022-09-29T03:04:55.725Z,5.83
2022-09-29T03:07:57.400Z,5.84
2022-09-29T03:10:59.585Z,5.84
2022-09-29T03:14:01.671Z,5.85
2022-09-29T03:17:03.817Z,5.82
2022-09-29T03:20:06.346Z,5.84
2022-09-29T03:23:08.054Z,5.93
2022-09-29T03:26:09.799Z,5.91
2022-09-29T03:29:11.516Z,5.98
2022-09-29T03:32:13.263Z,5.88
2022-09-29T03:35:15.042Z,5.87
2022-09-29T03:38:16.742Z,5.80
2022-09-29T03:41:18.659Z,5.79
2022-09-29T03:44:20.737Z,5.79
2022-09-29T03:47:22.626Z,5.82
2022-09-29T03:50:24.335Z,5.81
2022-09-29T03:53:26.078Z,5.79
2022-09-29T03:56:27.787Z,5.76
2022-09-29T03:59:29.637Z,5.77
2022-09-29T04:02:34.105Z,5.80
2022-09-29T04:05:38.823Z,5.77
2022-09-29T04:08:40.698Z,5.69
2022-09-29T04:11:42.422Z,5.67
2022-09-29T04:14:44.084Z,5.62
2022-09-29T04:17:45.835Z,5.61
2022-09-29T04:20:47.646Z,5.65
2022-09-29T04:23:50.014Z,5.65
2022-09-29T04:26:51.731Z,5.62
2022-09-29T04:29:53.447Z,5.72
2022-09-29T04:32:55.311Z,5.76
2022-09-29T04:35:58.272Z,5.74
2022-09-29T04:39:00.100Z,5.66
2022-09-29T04:42:01.947Z,5.60
2022-09-29T04:45:04.011Z,5.59
2022-09-29T04:48:05.699Z,5.55
2022-09-29T04:51:08.128Z,5.55
2022-09-29T04:54:09.831Z,5.49
2022-09-29T04:57:11.609Z,5.52
2022-09-29T05:00:13.551Z,5.47
2022-09-29T05:03:15.308Z,5.44
2022-09-29T05:06:17.484Z,5.44
2022-09-29T05:09:21.703Z,5.46
2022-09-29T05:12:26.238Z,5.54
2022-09-29T05:15:27.908Z,5.65
2022-09-29T05:18:32.481Z,5.66
2022-09-29T05:21:34.139Z,5.76
2022-09-29T05:24:35.870Z,5.84
2022-09-29T05:27:37.742Z,5.89
2022-09-29T05:30:39.442Z,5.95
2022-09-29T05:33:41.608Z,5.98
2022-09-29T05:36:44.252Z,6.04
2022-09-29T05:39:47.739Z,6.06
2022-09-29T05:42:51.903Z,6.16
2022-09-29T05:46:00.064Z,6.15
2022-09-29T05:49:02.324Z,6.30
2022-09-29T05:52:04.103Z,6.43
2022-09-29T05:55:09.688Z,6.66
2022-09-29T05:58:11.406Z,6.87
2022-09-29T06:01:15.812Z,7.03
2022-09-29T06:04:17.731Z,7.11
2022-09-29T06:07:19.448Z,7.31
2022-09-29T06:10:22.010Z,7.29
2022-09-29T06:13:23.730Z,7.42
2022-09-29T06:16:28.977Z,7.48
2022-09-29T06:19:30.724Z,7.36
2022-09-29T06:22:32.923Z,7.48
2022-09-29T06:25:34.612Z,7.54
2022-09-29T06:28:37.120Z,7.43
2022-09-29T06:31:39.831Z,7.31
2022-09-29T06:35:01.648Z,7.30
2022-09-29T06:38:04.194Z,7.28
2022-09-29T06:41:07.252Z,7.04
2022-09-29T06:44:10.552Z,7.29
2022-09-29T06:47:12.254Z,7.37
2022-09-29T06:50:14.012Z,7.44
2022-09-29T06:53:15.842Z,7.59
2022-09-29T06:56:19.333Z,7.76
2022-09-29T06:59:21.293Z,7.79
2022-09-29T07:02:23.232Z,7.83
2022-09-29T07:05:25.088Z,7.80
2022-09-29T07:08:28.907Z,7.94
2022-09-29T07:11:30.620Z,8.10
2022-09-29T07:14:32.408Z,8.05
2022-09-29T07:17:34.047Z,8.13
2022-09-29T07:20:36.668Z,8.27
2022-09-29T07:23:39.326Z,8.25
2022-09-29T07:26:41.376Z,8.38
2022-09-29T07:29:45.514Z,8.19
2022-09-29T07:33:02.071Z,8.19
2022-09-29T07:36:04.408Z,7.94
2022-09-29T07:39:06.169Z,7.96
2022-09-29T07:42:09.406Z,7.88
2022-09-29T07:45:12.167Z,7.99
2022-09-29T07:48:13.922Z,8.01
2022-09-29T07:51:20.117Z,7.87
2022-09-29T07:54:24.639Z,7.93
2022-09-29T07:57:30.302Z,7.83
2022-09-29T08:00:33.128Z,7.88
2022-09-29T08:03:34.938Z,7.65
2022-09-29T08:06:37.127Z,7.74
2022-09-29T08:09:41.406Z,7.84
2022-09-29T08:12:44.417Z,7.69
2022-09-29T08:15:46.390Z,7.55
2022-09-29T08:18:48.327Z,7.57
2022-09-29T08:21:50.054Z,7.62
2022-09-29T08:24:51.720Z,7.59
2022-09-29T08:27:55.837Z,7.72
2022-09-29T08:31:04.322Z,7.95
2022-09-29T08:34:07.011Z,8.17
2022-09-29T08:37:09.289Z,8.42
2022-09-29T08:40:11.102Z,8.59
2022-09-29T08:43:35.074Z,8.68
2022-09-29T08:46:46.354Z,9.12
2022-09-29T08:50:03.017Z,9.20
2022-09-29T08:53:24.826Z,9.52
2022-09-29T08:56:29.776Z,9.70
2022-09-29T08:59:32.141Z,10.00
2022-09-29T09:02:59.388Z,10.23
2022-09-29T09:06:15.296Z,10.13
2022-09-29T09:09:49.767Z,10.41
2022-09-29T09:12:57.184Z,10.27
2022-09-29T09:16:26.215Z,10.36
2022-09-29T09:20:01.895Z,10.49
2022-09-29T09:23:13.802Z,10.54
2022-09-29T09:26:15.545Z,10.93
2022-09-29T09:29:37.832Z,11.19
2022-09-29T09:32:48.470Z,11.07
2022-09-29T09:35:58.801Z,11.27
2022-09-29T09:39:06.479Z,11.16
2022-09-29T09:42:15.887Z,11.23
2022-09-29T09:45:29.185Z,11.41
2022-09-29T09:48:33.331Z,11.70
2022-09-29T09:52:10.159Z,11.39
2022-09-29T09:55:24.915Z,11.02
2022-09-29T09:59:19.075Z,11.21
2022-09-29T10:02:22.645Z,11.37
2022-09-29T10:05:34.308Z,11.92
2022-09-29T10:08:41.471Z,11.88
2022-09-29T10:11:46.471Z,11.93
2022-09-29T10:15:16.502Z,11.91
2022-09-29T10:18:20.881Z,12.51
2022-09-29T10:21:31.256Z,12.47
2022-09-29T10:24:32.983Z,12.42
2022-09-29T10:27:36.195Z,12.17
2022-09-29T10:30:38.014Z,12.21
2022-09-29T10:33:48.812Z,11.81
2022-09-29T10:36:59.151Z,11.73
2022-09-29T10:40:10.695Z,11.93
2022-09-29T10:43:31.612Z,12.00
2022-09-29T10:46:53.641Z,11.90
2022-09-29T10:50:12.958Z,11.60
2022-09-29T10:53:44.188Z,12.07
2022-09-29T10:56:49.607Z,12.13
2022-09-29T10:59:53.467Z,11.75
2022-09-29T11:03:04.673Z,11.63
2022-09-29T11:06:11.916Z,11.79
2022-09-29T11:09:13.652Z,12.06
2022-09-29T11:12:39.435Z,11.91
2022-09-29T11:15:41.695Z,11.98
2022-09-29T11:18:49.229Z,11.71
2022-09-29T11:21:54.214Z,11.73
2022-09-29T11:25:26.236Z,11.86
2022-09-29T11:28:39.754Z,12.04
2022-09-29T11:32:11.451Z,12.05
2022-09-29T11:35:34.036Z,12.56
2022-09-29T11:38:41.548Z,12.72
2022-09-29T11:42:00.399Z,12.61
2022-09-29T11:45:05.671Z,13.10
2022-09-29T11:48:35.281Z,12.99
2022-09-29T11:52:14.580Z,13.25
2022-09-29T11:55:23.294Z,13.27
2022-09-29T11:58:47.057Z,13.15
2022-09-29T12:01:57.183Z,13.45
2022-09-29T12:05:19.154Z,13.62
2022-09-29T12:08:42.543Z,13.45
2022-09-29T12:12:24.154Z,13.66
2022-09-29T12:15:41.841Z,14.10
2022-09-29T12:18:54.122Z,13.41
2022-09-29T12:22:00.163Z,13.29
2022-09-29T12:25:02.981Z,13.10
2022-09-29T12:28:17.101Z,13.21
2022-09-29T12:31:35.538Z,13.73
2022-09-29T12:34:49.062Z,14.16
2022-09-29T12:38:18.216Z,14.36
2022-09-29T12:41:27.014Z,14.10
2022-09-29T12:44:40.935Z,14.06
2022-09-29T12:47:51.701Z,13.51
2022-09-29T12:51:09.739Z,13.22
2022-09-29T12:54:29.875Z,13.25
2022-09-29T12:57:46.417Z,12.68
2022-09-29T13:01:01.674Z,12.92
2022-09-29T13:04:24.717Z,13.22
2022-09-29T13:07:44.404Z,13.25
2022-09-29T13:11:02.107Z,13.64
2022-09-29T13:14:34.518Z,13.60
2022-09-29T13:17:43.526Z,12.91
2022-09-29T13:21:11.829Z,12.87
2022-09-29T13:24:20.315Z,13.05
2022-09-29T13:27:39.727Z,13.12
2022-09-29T13:30:41.591Z,13.13
2022-09-29T13:33:48.946Z,13.33
2022-09-29T13:36:51.556Z,13.15
2022-09-29T13:40:03.506Z,13.46
2022-09-29T13:43:39.317Z,13.73
2022-09-29T13:46:41.119Z,14.06
2022-09-29T13:49:43.121Z,13.90
2022-09-29T13:52:51.018Z,13.74
2022-09-29T13:55:56.729Z,13.23
2022-09-29T13:59:02.167Z,13.19
2022-09-29T14:02:19.391Z,13.38
2022-09-29T14:05:23.947Z,13.31
2022-09-29T14:08:30.548Z,13.19
2022-09-29T14:11:42.048Z,13.02
2022-09-29T14:14:51.576Z,13.05
2022-09-29T14:18:03.999Z,12.66
2022-09-29T14:21:10.978Z,12.59
2022-09-29T14:24:34.349Z,12.42
2022-09-29T14:27:40.787Z,12.52
2022-09-29T14:30:49.359Z,13.00
2022-09-29T14:33:53.345Z,13.15
2022-09-29T14:36:57.847Z,13.17
2022-09-29T14:40:18.900Z,13.24
2022-09-29T14:43:21.050Z,13.17
2022-09-29T14:47:06.451Z,13.08
2022-09-29T14:50:42.751Z,12.58
2022-09-29T14:53:57.096Z,12.66
2022-09-29T14:57:22.342Z,12.29
2022-09-29T15:00:47.058Z,12.29
2022-09-29T15:03:53.330Z,12.36
2022-09-29T15:06:55.004Z,12.44
2022-09-29T15:09:59.644Z,12.39
2022-09-29T15:13:20.204Z,12.29
2022-09-29T15:16:30.035Z,12.24
2022-09-29T15:19:56.213Z,11.86
2022-09-29T15:23:04.400Z,11.80
2022-09-29T15:26:12.835Z,11.69
2022-09-29T15:29:18.246Z,11.59
2022-09-29T15:32:28.039Z,11.42
2022-09-29T15:35:31.196Z,11.31
2022-09-29T15:38:39.935Z,11.11
2022-09-29T15:41:44.987Z,11.02
2022-09-29T15:44:55.221Z,10.86
2022-09-29T15:48:08.212Z,10.77
2022-09-29T15:51:17.528Z,10.73
2022-09-29T15:54:19.487Z,10.56
2022-09-29T15:57:43.455Z,10.42
2022-09-29T16:00:45.769Z,10.33
2022-09-29T16:03:57.606Z,10.17
2022-09-29T16:06:59.710Z,10.11
2022-09-29T16:10:12.704Z,10.06
2022-09-29T16:13:36.986Z,9.99
2022-09-29T16:16:48.552Z,9.93
2022-09-29T16:19:50.450Z,9.78
2022-09-29T16:22:52.524Z,9.66
2022-09-29T16:26:06.451Z,9.53
2022-09-29T16:29:12.952Z,9.43
2022-09-29T16:32:38.461Z,9.35
2022-09-29T16:35:55.022Z,9.20
2022-09-29T16:38:56.799Z,9.11
2022-09-29T16:42:03.892Z,9.02
2022-09-29T16:45:07.833Z,8.83
2022-09-29T16:48:09.757Z,8.75
2022-09-29T16:51:40.085Z,8.64
2022-09-29T16:54:44.446Z,8.48
2022-09-29T16:58:08.375Z,8.39
2022-09-29T17:01:11.755Z,8.27
2022-09-29T17:04:13.903Z,8.27
2022-09-29T17:07:17.476Z,8.27
2022-09-29T17:10:22.386Z,8.28
2022-09-29T17:13:24.854Z,8.26
2022-09-29T17:16:28.983Z,8.29
2022-09-29T17:19:30.780Z,8.27
2022-09-29T17:22:34.770Z,8.29
2022-09-29T17:25:39.623Z,8.21
2022-09-29T17:28:41.572Z,8.13
2022-09-29T17:31:43.263Z,8.05
2022-09-29T17:34:44.961Z,7.97
2022-09-29T17:37:47.642Z,7.91
2022-09-29T17:40:55.569Z,7.85
2022-09-29T17:43:57.476Z,7.73
2022-09-29T17:47:11.070Z,7.68
2022-09-29T17:50:40.791Z,7.61
2022-09-29T17:53:42.644Z,7.58
2022-09-29T17:56:44.408Z,7.52
2022-09-29T17:59:47.336Z,7.44
2022-09-29T18:02:51.007Z,7.41
2022-09-29T18:05:59.806Z,7.37
2022-09-29T18:09:01.572Z,7.29
2022-09-29T18:12:03.374Z,7.24
2022-09-29T18:15:05.814Z,7.18
2022-09-29T18:18:08.347Z,7.19
2022-09-29T18:21:10.079Z,7.20
2022-09-29T18:24:11.833Z,7.22
2022-09-29T18:27:14.873Z,7.18
2022-09-29T18:30:20.697Z,7.16
2022-09-29T18:33:22.687Z,7.09
2022-09-29T18:36:24.499Z,7.02
2022-09-29T18:39:26.247Z,6.97
2022-09-29T18:42:27.960Z,6.90
2022-09-29T18:45:35.574Z,6.86
2022-09-29T18:48:37.460Z,6.81
2022-09-29T18:51:39.264Z,6.75
2022-09-29T18:54:43.546Z,6.71
2022-09-29T18:57:47.332Z,6.68
2022-09-29T19:00:53.854Z,6.68
2022-09-29T19:03:55.671Z,6.69
2022-09-29T19:06:57.885Z,6.65
2022-09-29T19:10:00.046Z,6.66
2022-09-29T19:13:08.076Z,6.67
2022-09-29T19:16:09.892Z,6.68
2022-09-29T19:19:12.105Z,6.68
2022-09-29T19:22:13.859Z,6.72
2022-09-29T19:25:18.658Z,6.75
2022-09-29T19:28:22.669Z,6.73
2022-09-29T19:31:24.533Z,6.73
2022-09-29T19:34:26.749Z,6.73
2022-09-29T19:37:28.991Z,6.75
2022-09-29T19:40:34.630Z,6.79
2022-09-29T19:43:36.347Z,6.80
2022-09-29T19:46:41.394Z,6.83
2022-09-29T19:49:43.138Z,6.87
2022-09-29T19:52:44.862Z,6.86
2022-09-29T19:55:47.465Z,6.84
2022-09-29T19:58:51.049Z,6.86
2022-09-29T20:01:53.540Z,6.87
2022-09-29T20:04:56.515Z,6.85
2022-09-29T20:07:58.522Z,6.81
2022-09-29T20:11:12.519Z,6.81
2022-09-29T20:14:15.841Z,6.81
2022-09-29T20:17:17.719Z,6.79
2022-09-29T20:20:22.827Z,6.81
2022-09-29T20:23:24.866Z,6.81
2022-09-29T20:26:28.079Z,6.83
2022-09-29T20:29:30.638Z,6.83
2022-09-29T20:32:33.712Z,6.86
2022-09-29T20:35:38.944Z,6.91
2022-09-29T20:38:43.576Z,6.95
2022-09-29T20:41:45.604Z,7.02
2022-09-29T20:44:47.304Z,7.06
2022-09-29T20:47:49.011Z,7.09
2022-09-29T20:50:50.756Z,7.13
2022-09-29T20:54:00.445Z,7.15
2022-09-29T20:57:02.982Z,7.19
2022-09-29T21:00:08.902Z,7.25
2022-09-29T21:03:10.611Z,7.25
2022-09-29T21:06:13.445Z,7.25
2022-09-29T21:09:18.652Z,7.28
2022-09-29T21:12:20.893Z,7.30
2022-09-29T21:15:23.142Z,7.31
2022-09-29T21:18:26.190Z,7.32
2022-09-29T21:21:28.142Z,7.34
2022-09-29T21:24:29.937Z,7.35
2022-09-29T21:27:31.965Z,7.35
2022-09-29T21:30:33.863Z,7.34
2022-09-29T21:33:36.998Z,7.37
2022-09-29T21:36:39.380Z,7.34
2022-09-29T21:39:42.142Z,7.33
2022-09-29T21:42:43.882Z,7.37
2022-09-29T21:45:45.558Z,7.34
2022-09-29T21:49:01.176Z,7.38
2022-09-29T21:52:02.921Z,7.37
2022-09-29T21:55:04.910Z,7.37
2022-09-29T21:58:07.252Z,7.36
2022-09-29T22:01:11.630Z,7.36
2022-09-29T22:04:14.149Z,7.34
2022-09-29T22:07:15.980Z,7.37
2022-09-29T22:10:17.899Z,7.37
2022-09-29T22:13:20.791Z,7.38
2022-09-29T22:16:25.904Z,7.38
2022-09-29T22:19:27.730Z,7.39
2022-09-29T22:22:29.718Z,7.36
2022-09-29T22:25:33.171Z,7.38
2022-09-29T22:28:35.269Z,7.37
2022-09-29T22:31:39.173Z,7.38
2022-09-29T22:34:40.930Z,7.39
2022-09-29T22:37:42.940Z,7.40
2022-09-29T22:40:44.632Z,7.38
2022-09-29T22:43:46.441Z,7.33
2022-09-29T22:46:48.292Z,7.27
2022-09-29T22:49:50.056Z,7.26
2022-09-29T22:52:56.174Z,7.28
2022-09-29T22:55:57.919Z,7.30
2022-09-29T22:59:02.150Z,7.30
2022-09-29T23:02:03.989Z,7.32
2022-09-29T23:05:06.280Z,7.34
2022-09-29T23:08:07.999Z,7.36
2022-09-29T23:11:17.591Z,7.30
2022-09-29T23:14:19.400Z,7.30
2022-09-29T23:17:21.326Z,7.34
2022-09-29T23:20:23.044Z,7.34
2022-09-29T23:23:24.864Z,7.28
2022-09-29T23:26:28.591Z,7.24
2022-09-29T23:29:30.292Z,7.20
2022-09-29T23:32:32.000Z,7.18
2022-09-29T23:35:33.697Z,7.20
2022-09-29T23:38:55.063Z,7.21
2022-09-29T23:41:56.805Z,7.30
2022-09-29T23:44:58.622Z,7.33
2022-09-29T23:48:00.408Z,7.33
2022-09-29T23:51:02.101Z,7.29
2022-09-29T23:54:04.983Z,7.35
2022-09-29T23:57:06.682Z,7.32
